Time;durP1;ratioP1;P1;durP2;ratioP2;P2;SDS_P1;SDS_P2;PMS_P1;PMS_P2;Temp;Humidity;BMP_temperature;BMP_pressure;BME280_temperature;BME280_humidity;BME280_pressure;Samples;Min_cycle;Max_cycle;Signal;HPM_P1;HPM_P2
2023/03/26 00:01:48;;;;;;;125.47;47.03;;;7.90;99.90;;;;;;5032324;28;20229;-51
2023/03/26 00:04:18;;;;;;;523.37;97.10;;;7.90;99.90;;;;;;5032154;28;20608;-51
2023/03/26 00:06:47;;;;;;;1999.90;407.93;;;7.90;99.90;;;;;;5036162;28;20316;-51
2023/03/26 00:09:16;;;;;;;1999.90;811.67;;;7.80;99.90;;;;;;5052132;28;20206;-51
2023/03/26 00:11:45;;;;;;;962.67;128.67;;;7.40;99.90;;;;;;5049214;28;22372;-51
2023/03/26 00:14:16;;;;;;;104.47;34.20;;;7.30;99.90;;;;;;5052352;28;20774;-51
2023/03/26 00:16:46;;;;;;;231.17;75.63;;;7.20;99.90;;;;;;5051724;28;20225;-51
2023/03/26 00:19:15;;;;;;;1547.73;245.17;;;7.20;99.90;;;;;;5052503;28;20223;-51
2023/03/26 00:21:43;;;;;;;314.33;100.53;;;7.20;99.90;;;;;;5052166;28;20221;-51
2023/03/26 00:24:15;;;;;;;107.27;50.37;;;7.30;99.90;;;;;;5052280;28;20216;-51
2023/03/26 00:26:47;;;;;;;64.20;34.27;;;7.30;99.90;;;;;;5046315;28;20233;-51
2023/03/26 00:29:17;;;;;;;323.73;75.77;;;7.30;99.90;;;;;;5051899;28;20765;-51
2023/03/26 00:31:45;;;;;;;93.00;21.00;;;7.40;99.90;;;;;;5038534;28;20298;-51
2023/03/26 00:34:17;;;;;;;265.07;60.27;;;7.40;99.90;;;;;;5024087;28;20198;-51
2023/03/26 00:36:45;;;;;;;56.47;24.73;;;7.40;99.90;;;;;;5051123;28;20229;-51
2023/03/26 00:39:16;;;;;;;168.27;40.17;;;7.40;99.90;;;;;;5046654;28;20220;-51
2023/03/26 00:41:44;;;;;;;88.03;23.90;;;7.40;99.90;;;;;;5043737;28;20214;-51
2023/03/26 00:44:12;;;;;;;89.43;16.47;;;7.50;99.90;;;;;;5041809;28;20929;-51
2023/03/26 00:46:42;;;;;;;1544.87;237.50;;;7.50;99.90;;;;;;5051731;28;20237;-51
2023/03/26 00:49:13;;;;;;;89.37;37.80;;;7.50;99.90;;;;;;5040827;28;20231;-51
2023/03/26 00:51:42;;;;;;;810.40;129.90;;;7.40;99.90;;;;;;5032938;28;20648;-51
2023/03/26 00:54:10;;;;;;;160.63;40.60;;;7.40;99.90;;;;;;5042808;28;20292;-51
2023/03/26 00:56:37;;;;;;;830.87;111.13;;;7.40;99.90;;;;;;5051309;28;20297;-51
2023/03/26 00:59:08;;;;;;;89.97;23.57;;;7.40;99.90;;;;;;5051522;28;20205;-51
2023/03/26 01:01:36;;;;;;;402.70;76.83;;;7.40;99.90;;;;;;5050410;28;20599;-51
2023/03/26 01:04:30;;;;;;;117.93;43.47;;;7.40;99.90;;;;;;5047164;28;20229;-51
2023/03/26 01:07:02;;;;;;;125.17;59.47;;;7.40;99.90;;;;;;5036206;28;20288;-51
2023/03/26 01:09:37;;;;;;;78.80;34.93;;;7.40;99.90;;;;;;5036837;28;20217;-50
2023/03/26 01:12:08;;;;;;;45.10;26.03;;;7.40;99.90;;;;;;5034875;28;20644;-51
2023/03/26 01:14:37;;;;;;;70.87;24.03;;;7.40;99.90;;;;;;5035865;28;20245;-50
2023/03/26 01:17:08;;;;;;;150.70;24.23;;;7.40;99.90;;;;;;5049820;28;20201;-51
2023/03/26 01:19:44;;;;;;;248.13;55.30;;;7.40;99.90;;;;;;5051015;28;20685;-51
2023/03/26 01:22:15;;;;;;;49.03;27.17;;;7.50;99.90;;;;;;5050976;28;20213;-50
2023/03/26 01:24:51;;;;;;;242.80;38.23;;;7.50;99.90;;;;;;5049138;28;20659;-51
2023/03/26 01:27:31;;;;;;;115.80;22.43;;;7.50;99.90;;;;;;5050105;28;20336;-51
2023/03/26 01:30:06;;;;;;;186.20;37.47;;;7.50;99.90;;;;;;5040227;28;20301;-51
2023/03/26 01:32:50;;;;;;;397.40;65.77;;;7.60;99.90;;;;;;5023469;28;20229;-52
2023/03/26 01:35:27;;;;;;;66.80;36.20;;;7.50;99.90;;;;;;5050679;28;20229;-51
2023/03/26 01:38:09;;;;;;;43.40;29.17;;;7.50;99.90;;;;;;5050697;28;20217;-51
2023/03/26 01:40:45;;;;;;;131.60;40.50;;;7.50;99.90;;;;;;5050429;28;20237;-52
2023/03/26 01:43:21;;;;;;;231.57;71.33;;;7.60;99.90;;;;;;5050912;28;20917;-51
2023/03/26 01:45:51;;;;;;;186.23;50.87;;;7.60;99.90;;;;;;5050342;28;20767;-51
2023/03/26 01:48:19;;;;;;;56.77;21.77;;;7.50;99.90;;;;;;5050809;28;20206;-51
2023/03/26 01:50:52;;;;;;;232.33;86.60;;;7.50;99.90;;;;;;5042715;28;20317;-51
2023/03/26 01:53:20;;;;;;;168.70;47.13;;;7.50;99.90;;;;;;5050264;28;20202;-51
2023/03/26 01:56:02;;;;;;;103.70;31.43;;;7.50;99.90;;;;;;5050400;28;20320;-51
2023/03/26 01:58:36;;;;;;;117.07;31.07;;;7.40;99.90;;;;;;5050604;28;20296;-51
2023/03/26 02:01:16;;;;;;;310.80;53.43;;;7.50;99.90;;;;;;5050124;28;20222;-51
2023/03/26 02:03:49;;;;;;;212.13;43.17;;;7.50;99.90;;;;;;5050528;28;20212;-50
2023/03/26 02:06:24;;;;;;;89.00;25.83;;;7.50;99.90;;;;;;5035938;28;20231;-51
2023/03/26 02:08:56;;;;;;;274.70;48.70;;;7.50;99.90;;;;;;5025041;28;20236;-51
2023/03/26 02:11:26;;;;;;;111.80;36.37;;;7.40;99.90;;;;;;5041497;28;20309;-51
2023/03/26 02:14:04;;;;;;;298.83;42.77;;;7.50;99.90;;;;;;5050491;28;20201;-51
2023/03/26 02:16:33;;;;;;;161.87;44.70;;;7.50;99.90;;;;;;5049900;28;20237;-51
2023/03/26 02:19:01;;;;;;;120.00;39.37;;;7.60;99.90;;;;;;5050520;28;20216;-51
2023/03/26 02:21:32;;;;;;;38.13;21.27;;;7.60;99.90;;;;;;5049638;28;20225;-51
2023/03/26 02:24:02;;;;;;;235.07;42.53;;;7.50;99.90;;;;;;5046618;28;20206;-51
2023/03/26 02:26:34;;;;;;;136.13;54.37;;;7.50;99.90;;;;;;5049780;28;20237;-51
2023/03/26 02:29:02;;;;;;;171.13;28.10;;;7.50;99.90;;;;;;5039033;28;20691;-51
2023/03/26 02:31:30;;;;;;;238.17;46.30;;;7.50;99.90;;;;;;5048026;28;20245;-50
2023/03/26 02:33:58;;;;;;;40.67;22.37;;;7.50;99.90;;;;;;5047494;28;20205;-51
2023/03/26 02:36:26;;;;;;;65.97;23.23;;;7.50;99.90;;;;;;5049532;28;20340;-51
2023/03/26 02:38:56;;;;;;;151.70;35.43;;;7.50;99.90;;;;;;5049499;28;20209;-51
2023/03/26 02:41:25;;;;;;;175.87;46.70;;;7.50;99.90;;;;;;5049681;28;20225;-51
2023/03/26 02:43:54;;;;;;;131.77;45.27;;;7.60;99.90;;;;;;5049763;28;20686;-51
2023/03/26 02:46:22;;;;;;;167.43;40.73;;;7.60;99.90;;;;;;5049340;28;20258;-51
2023/03/26 02:48:50;;;;;;;31.33;20.13;;;7.60;99.90;;;;;;5049420;28;20222;-51
2023/03/26 02:51:19;;;;;;;237.87;61.83;;;7.70;99.90;;;;;;5049479;28;20572;-51
2023/03/26 02:53:47;;;;;;;53.33;20.53;;;7.70;99.90;;;;;;5049362;28;20214;-52
2023/03/26 02:56:15;;;;;;;55.10;28.23;;;7.70;99.90;;;;;;5049223;28;20694;-51
2023/03/26 02:58:43;;;;;;;121.03;29.57;;;7.70;99.90;;;;;;5040907;28;20216;-51
2023/03/26 03:01:16;;;;;;;203.83;37.27;;;7.80;99.90;;;;;;5049240;28;20208;-51
2023/03/26 03:03:47;;;;;;;244.17;60.07;;;7.70;99.90;;;;;;5049278;28;20911;-51
2023/03/26 03:06:16;;;;;;;158.03;26.97;;;7.70;99.90;;;;;;5035379;28;20241;-51
2023/03/26 03:08:44;;;;;;;76.10;26.30;;;7.70;99.90;;;;;;5021717;28;20201;-51
2023/03/26 03:11:15;;;;;;;113.50;37.50;;;7.60;99.90;;;;;;5042198;28;20304;-51
2023/03/26 03:13:44;;;;;;;37.10;21.07;;;7.60;99.90;;;;;;5048987;28;20279;-51
2023/03/26 03:16:13;;;;;;;256.33;55.50;;;7.60;99.90;;;;;;5048545;28;20332;-51
2023/03/26 03:18:41;;;;;;;549.20;88.33;;;7.60;99.90;;;;;;5048868;28;20229;-51
2023/03/26 03:21:09;;;;;;;205.17;64.17;;;7.50;99.90;;;;;;5049015;28;20296;-51
2023/03/26 03:23:38;;;;;;;169.30;41.60;;;7.50;99.90;;;;;;5048831;28;20320;-51
2023/03/26 03:26:13;;;;;;;53.93;28.53;;;7.60;99.90;;;;;;5049124;28;20320;-51
2023/03/26 03:28:41;;;;;;;350.47;51.43;;;7.60;99.90;;;;;;5048758;28;20301;-51
2023/03/26 03:31:09;;;;;;;158.70;45.30;;;7.60;99.90;;;;;;5049041;28;20296;-51
2023/03/26 03:33:40;;;;;;;184.27;37.07;;;7.60;99.90;;;;;;5048564;28;20201;-52
2023/03/26 03:36:09;;;;;;;144.53;34.10;;;7.60;99.90;;;;;;5049261;28;20225;-51
2023/03/26 03:38:48;;;;;;;54.97;23.20;;;7.50;99.90;;;;;;5048567;28;20683;-51
2023/03/26 03:41:17;;;;;;;258.00;59.83;;;7.50;99.90;;;;;;5048744;28;20208;-51
2023/03/26 03:43:45;;;;;;;105.47;31.17;;;7.50;99.90;;;;;;5048548;28;20233;-51
2023/03/26 03:46:13;;;;;;;85.50;21.97;;;7.50;99.90;;;;;;5048853;28;20308;-51
2023/03/26 03:48:48;;;;;;;71.93;28.70;;;7.50;99.90;;;;;;5042786;28;20205;-51
2023/03/26 03:51:17;;;;;;;66.07;33.77;;;7.40;99.90;;;;;;5042800;28;20685;-51
2023/03/26 03:53:46;;;;;;;109.67;34.13;;;7.40;99.90;;;;;;5041076;28;20213;-51
2023/03/26 03:56:16;;;;;;;120.40;29.60;;;7.50;99.90;;;;;;5036881;28;20233;-51
2023/03/26 03:58:46;;;;;;;51.33;24.63;;;7.50;99.90;;;;;;5040464;28;20292;-51
2023/03/26 04:01:15;;;;;;;169.30;36.17;;;7.50;99.90;;;;;;5048283;28;20720;-51
2023/03/26 04:03:45;;;;;;;159.07;37.73;;;7.50;99.90;;;;;;5048601;28;20363;-51
2023/03/26 04:06:17;;;;;;;231.17;44.53;;;7.60;99.90;;;;;;5035063;28;20230;-51
2023/03/26 04:08:46;;;;;;;89.13;25.00;;;7.60;99.90;;;;;;5034867;28;20206;-51
2023/03/26 04:11:14;;;;;;;54.77;27.13;;;7.60;99.90;;;;;;5048423;28;20216;-51
2023/03/26 04:13:42;;;;;;;173.90;38.30;;;7.60;99.90;;;;;;5034678;28;20267;-51
2023/03/26 04:16:11;;;;;;;185.20;49.07;;;7.50;99.90;;;;;;5048285;28;20317;-51
2023/03/26 04:18:39;;;;;;;50.60;22.67;;;7.60;99.90;;;;;;5048256;28;20240;-51
2023/03/26 04:21:11;;;;;;;38.37;22.07;;;7.50;99.90;;;;;;5048647;28;20206;-51
2023/03/26 04:23:41;;;;;;;226.60;39.93;;;7.50;99.90;;;;;;5048282;28;20229;-51
2023/03/26 04:26:15;;;;;;;41.00;20.27;;;7.50;99.90;;;;;;5039726;28;20776;-51
2023/03/26 04:28:46;;;;;;;108.63;36.67;;;7.40;99.90;;;;;;5048647;28;20206;-51
2023/03/26 04:31:22;;;;;;;64.33;25.30;;;7.30;99.90;;;;;;5052299;28;20296;-51
2023/03/26 04:33:54;;;;;;;45.60;22.97;;;7.30;99.90;;;;;;5042075;28;20695;-51
2023/03/26 04:36:27;;;;;;;187.03;51.20;;;7.30;99.90;;;;;;5051848;28;20609;-51
2023/03/26 04:38:57;;;;;;;54.83;30.33;;;7.40;99.90;;;;;;5052017;28;20213;-51
2023/03/26 04:41:26;;;;;;;282.37;54.67;;;7.40;99.90;;;;;;5045590;28;20256;-51
2023/03/26 04:43:54;;;;;;;35.80;17.90;;;7.40;99.90;;;;;;5047279;28;20240;-51
2023/03/26 04:46:22;;;;;;;53.23;15.60;;;7.30;99.90;;;;;;5051670;28;20229;-51
2023/03/26 04:48:51;;;;;;;26.63;8.87;;;7.30;99.90;;;;;;5051834;28;20218;-49
2023/03/26 04:51:24;;;;;;;94.37;37.87;;;7.40;99.90;;;;;;5039231;28;20205;-51
2023/03/26 04:53:56;;;;;;;48.73;18.23;;;7.40;99.90;;;;;;5051554;28;20208;-51
2023/03/26 04:56:36;;;;;;;61.03;29.57;;;7.40;99.90;;;;;;5051475;28;20608;-51
2023/03/26 04:59:04;;;;;;;43.50;16.50;;;7.40;99.90;;;;;;5051366;28;20209;-51
2023/03/26 05:01:36;;;;;;;35.53;12.93;;;7.40;99.90;;;;;;5051541;28;20244;-52
2023/03/26 05:04:05;;;;;;;35.27;17.67;;;7.50;99.90;;;;;;5051524;28;20291;-51
2023/03/26 05:06:33;;;;;;;69.90;18.00;;;7.50;99.90;;;;;;5036849;28;20670;-51
2023/03/26 05:09:03;;;;;;;54.67;24.93;;;7.50;99.90;;;;;;5051292;28;20241;-51
2023/03/26 05:11:31;;;;;;;65.37;28.67;;;7.50;99.90;;;;;;5038953;28;20305;-51
2023/03/26 05:13:59;;;;;;;248.83;60.27;;;7.50;99.90;;;;;;5050941;28;20202;-51
2023/03/26 05:16:28;;;;;;;47.83;25.00;;;7.50;99.90;;;;;;5050940;28;20649;-51
2023/03/26 05:18:56;;;;;;;40.63;20.03;;;7.40;99.90;;;;;;5023152;28;20213;-50
2023/03/26 05:21:24;;;;;;;76.10;31.13;;;7.40;99.90;;;;;;5048357;28;20293;-51
2023/03/26 05:23:52;;;;;;;169.03;39.27;;;7.40;99.90;;;;;;5041967;28;20279;-51
2023/03/26 05:26:21;;;;;;;84.70;30.80;;;7.30;99.90;;;;;;5043656;28;20231;-51
2023/03/26 05:28:50;;;;;;;94.80;34.73;;;7.20;99.90;;;;;;5044156;28;20263;-51
2023/03/26 05:31:21;;;;;;;47.67;19.10;;;7.20;99.90;;;;;;5048247;28;20257;-52
2023/03/26 05:33:49;;;;;;;314.67;67.07;;;7.20;99.90;;;;;;5048663;28;20201;-51
2023/03/26 05:36:17;;;;;;;37.27;25.03;;;7.20;99.90;;;;;;5040926;28;20223;-51
2023/03/26 05:38:48;;;;;;;110.03;34.27;;;7.10;99.90;;;;;;5045566;28;20206;-51
2023/03/26 05:41:17;;;;;;;159.73;33.60;;;7.20;99.90;;;;;;5048872;28;20699;-51
2023/03/26 05:43:47;;;;;;;161.67;29.80;;;7.20;99.90;;;;;;5045595;28;20229;-51
2023/03/26 05:46:16;;;;;;;243.30;46.37;;;7.30;99.90;;;;;;5044897;28;20234;-51
2023/03/26 05:48:45;;;;;;;140.83;35.17;;;7.30;99.90;;;;;;5046587;28;20213;-51
2023/03/26 05:51:14;;;;;;;46.93;20.03;;;7.30;99.90;;;;;;5043924;28;20201;-51
2023/03/26 05:53:42;;;;;;;44.23;24.67;;;7.30;99.90;;;;;;5046063;28;20200;-51
2023/03/26 05:56:10;;;;;;;195.80;49.93;;;7.40;99.90;;;;;;5039076;28;20230;-50
2023/03/26 05:58:40;;;;;;;254.23;44.53;;;7.40;99.90;;;;;;5041966;28;20214;-51
2023/03/26 06:01:15;;;;;;;51.83;17.13;;;7.40;99.90;;;;;;5040749;28;20292;-51
2023/03/26 06:03:45;;;;;;;121.60;39.87;;;7.50;99.90;;;;;;5049844;28;20221;-51
2023/03/26 06:06:15;;;;;;;101.93;31.97;;;7.50;99.90;;;;;;5033064;28;20226;-51
2023/03/26 06:08:45;;;;;;;512.33;85.80;;;7.50;99.90;;;;;;5019308;28;20236;-52
2023/03/26 06:11:13;;;;;;;114.13;32.83;;;7.50;99.90;;;;;;5034264;28;20724;-51
2023/03/26 06:13:41;;;;;;;251.63;51.80;;;7.50;99.90;;;;;;5032149;28;20210;-50
2023/03/26 06:16:12;;;;;;;359.87;74.77;;;7.60;99.90;;;;;;5031985;28;20230;-50
2023/03/26 06:18:55;;;;;;;64.53;34.10;;;7.70;99.90;;;;;;5031063;28;20210;-52
2023/03/26 06:21:24;;;;;;;147.47;47.70;;;7.70;99.90;;;;;;5032410;28;20210;-51
2023/03/26 06:23:52;;;;;;;328.00;74.17;;;7.70;99.90;;;;;;5031017;28;20273;-50
2023/03/26 06:26:21;;;;;;;525.40;87.83;;;7.80;99.90;;;;;;5036702;28;20261;-51
2023/03/26 06:28:49;;;;;;;302.40;52.90;;;7.80;99.90;;;;;;5032120;28;20210;-50
2023/03/26 06:31:18;;;;;;;398.83;87.63;;;7.80;99.90;;;;;;5035253;28;20233;-51
2023/03/26 06:33:47;;;;;;;100.50;30.53;;;7.80;99.90;;;;;;5029681;28;20619;-51
2023/03/26 06:36:15;;;;;;;303.93;55.13;;;7.80;99.90;;;;;;5029112;28;20241;-51
2023/03/26 06:38:43;;;;;;;104.70;29.77;;;7.80;99.90;;;;;;5029429;28;20221;-51
2023/03/26 06:41:11;;;;;;;45.43;20.37;;;7.80;99.90;;;;;;5041879;28;20667;-50
2023/03/26 06:43:40;;;;;;;155.60;34.00;;;7.90;99.90;;;;;;5029684;28;20362;-51
2023/03/26 06:46:09;;;;;;;70.10;34.40;;;8.00;99.90;;;;;;5028854;28;20638;-51
2023/03/26 06:48:38;;;;;;;305.90;58.10;;;8.00;99.90;;;;;;5029253;28;20293;-50
2023/03/26 06:51:07;;;;;;;79.83;35.27;;;8.00;99.90;;;;;;5028324;28;20738;-51
2023/03/26 06:53:35;;;;;;;242.20;61.60;;;8.00;99.90;;;;;;5029564;28;20220;-50
2023/03/26 06:56:03;;;;;;;91.10;37.50;;;8.10;99.90;;;;;;5028920;28;20236;-50
2023/03/26 06:58:32;;;;;;;54.30;22.13;;;8.00;99.90;;;;;;5034700;28;20209;-51
2023/03/26 07:01:00;;;;;;;140.60;51.27;;;8.10;99.90;;;;;;5025363;28;20297;-51
2023/03/26 07:03:29;;;;;;;317.80;63.37;;;8.10;99.90;;;;;;5028800;28;20671;-50
2023/03/26 07:05:58;;;;;;;285.57;60.23;;;8.10;99.90;;;;;;5035357;28;20253;-51
2023/03/26 07:08:26;;;;;;;130.73;37.30;;;8.10;99.90;;;;;;5030621;28;20301;-51
2023/03/26 07:10:54;;;;;;;69.10;32.13;;;8.20;99.90;;;;;;5029211;28;20317;-51
2023/03/26 07:13:23;;;;;;;293.90;54.50;;;8.20;99.90;;;;;;5028484;28;20214;-51
2023/03/26 07:15:51;;;;;;;168.03;40.63;;;8.20;99.90;;;;;;5029112;28;20319;-51
2023/03/26 07:18:19;;;;;;;161.87;40.00;;;8.30;99.90;;;;;;5029041;28;20301;-51
2023/03/26 07:20:47;;;;;;;432.83;74.93;;;8.30;99.90;;;;;;5029197;28;20212;-51
2023/03/26 07:23:19;;;;;;;772.17;114.23;;;8.20;99.90;;;;;;5028790;28;20296;-51
2023/03/26 07:25:48;;;;;;;203.30;56.10;;;8.20;99.90;;;;;;5028946;28;20910;-51
2023/03/26 07:28:25;;;;;;;696.90;82.53;;;8.20;99.90;;;;;;5028673;28;20321;-50
2023/03/26 07:31:04;;;;;;;400.30;75.70;;;8.20;99.90;;;;;;5030715;28;20246;-51
2023/03/26 07:33:39;;;;;;;488.47;78.70;;;8.10;99.90;;;;;;5029549;28;20205;-51
2023/03/26 07:36:19;;;;;;;1300.57;241.37;;;8.20;99.90;;;;;;5034677;28;20277;-51
2023/03/26 07:39:03;;;;;;;47.30;21.40;;;8.20;99.90;;;;;;5021753;28;20253;-50
2023/03/26 07:41:40;;;;;;;695.40;106.20;;;8.20;99.90;;;;;;5021190;28;20304;-51
2023/03/26 07:44:27;;;;;;;179.40;43.37;;;8.30;99.90;;;;;;5015784;28;20313;-49
2023/03/26 07:46:56;;;;;;;85.07;33.47;;;8.30;99.90;;;;;;5027535;28;20905;-50
2023/03/26 07:49:24;;;;;;;794.87;121.83;;;8.20;99.90;;;;;;5026840;28;20210;-50
2023/03/26 07:51:53;;;;;;;135.40;31.07;;;8.30;99.90;;;;;;5027008;28;20684;-50
2023/03/26 07:54:23;;;;;;;96.07;31.10;;;8.40;99.90;;;;;;5027003;28;20202;-51
2023/03/26 07:56:54;;;;;;;382.87;70.77;;;8.50;99.90;;;;;;5027426;28;20230;-51
2023/03/26 07:59:31;;;;;;;163.00;59.43;;;8.50;99.90;;;;;;5032379;28;20261;-51
2023/03/26 08:02:23;;;;;;;55.73;26.13;;;8.40;99.90;;;;;;5031386;28;20288;-51
2023/03/26 08:05:08;;;;;;;239.37;45.27;;;8.50;99.90;;;;;;5024621;28;20351;-51
2023/03/26 08:07:51;;;;;;;786.50;117.87;;;8.50;99.90;;;;;;5042405;28;20287;-52
2023/03/26 08:10:27;;;;;;;655.60;124.57;;;8.50;99.90;;;;;;5052567;28;20212;-51
2023/03/26 08:13:01;;;;;;;421.67;99.83;;;8.50;99.90;;;;;;5050402;28;20756;-51
2023/03/26 08:15:36;;;;;;;355.90;53.53;;;8.60;99.90;;;;;;5047260;28;20380;-51
2023/03/26 08:18:15;;;;;;;253.33;50.30;;;8.60;99.90;;;;;;5029005;28;20216;-51
2023/03/26 08:20:47;;;;;;;194.93;33.17;;;8.70;99.90;;;;;;5029136;28;20298;-51
2023/03/26 08:23:23;;;;;;;763.77;137.50;;;8.70;99.90;;;;;;5032615;28;20305;-51
2023/03/26 08:26:01;;;;;;;642.67;94.27;;;8.70;99.90;;;;;;5026904;28;20232;-51
2023/03/26 08:28:54;;;;;;;340.10;82.77;;;8.80;99.90;;;;;;5040263;28;20690;-51
2023/03/26 08:31:32;;;;;;;192.10;46.37;;;8.90;99.90;;;;;;5048109;28;20213;-51
2023/03/26 08:34:00;;;;;;;160.60;49.83;;;9.00;99.90;;;;;;5047383;28;20202;-51
2023/03/26 08:36:28;;;;;;;676.77;121.97;;;8.90;99.90;;;;;;5027810;28;20319;-52
2023/03/26 08:38:58;;;;;;;600.83;104.17;;;8.80;99.90;;;;;;5031936;28;20461;-51
2023/03/26 08:42:11;;;;;;;222.90;78.07;;;8.70;99.90;;;;;;5031982;28;20814;-51
2023/03/26 08:45:13;;;;;;;1511.87;199.37;;;8.80;99.90;;;;;;5030243;28;20311;-51
2023/03/26 08:48:03;;;;;;;308.53;83.63;;;8.80;99.90;;;;;;5026391;28;20869;-51
2023/03/26 08:50:58;;;;;;;536.87;92.17;;;8.80;99.90;;;;;;5030211;28;20211;-52
2023/03/26 08:53:49;;;;;;;450.27;61.30;;;8.80;99.90;;;;;;5028147;28;20233;-52
2023/03/26 08:56:24;;;;;;;97.00;35.40;;;8.80;99.90;;;;;;5009419;28;20232;-51
2023/03/26 08:59:25;;;;;;;334.13;75.03;;;8.80;99.90;;;;;;5030418;28;20297;-51
2023/03/26 09:02:29;;;;;;;378.57;87.00;;;8.80;99.90;;;;;;5024246;28;20206;-51
2023/03/26 09:05:35;;;;;;;222.73;53.40;;;8.90;99.90;;;;;;5027726;28;20234;-51
2023/03/26 09:08:42;;;;;;;461.90;89.10;;;8.90;99.90;;;;;;5044024;28;20205;-51
2023/03/26 09:11:55;;;;;;;317.17;62.77;;;8.90;99.90;;;;;;5038558;28;20208;-51
2023/03/26 09:15:11;;;;;;;568.23;105.90;;;9.00;99.90;;;;;;5031549;28;20221;-51
2023/03/26 09:18:00;;;;;;;469.77;112.43;;;9.00;99.90;;;;;;4970183;28;20811;-51
2023/03/26 09:21:04;;;;;;;1511.13;271.17;;;9.00;99.90;;;;;;5050294;28;20251;-51
2023/03/26 09:24:06;;;;;;;533.67;88.00;;;9.10;99.90;;;;;;5046628;28;20206;-51
2023/03/26 09:26:46;;;;;;;1507.37;171.10;;;9.10;99.90;;;;;;5047603;28;20262;-51
2023/03/26 09:29:47;;;;;;;140.73;53.23;;;9.00;99.90;;;;;;5047541;28;20289;-51
2023/03/26 09:32:50;;;;;;;430.60;75.40;;;9.00;99.90;;;;;;5048133;28;20741;-51
2023/03/26 09:35:53;;;;;;;866.40;133.03;;;9.00;99.90;;;;;;5050755;28;20290;-51
2023/03/26 09:38:41;;;;;;;1194.73;212.67;;;9.00;99.90;;;;;;5045952;28;20216;-51
2023/03/26 09:41:15;;;;;;;285.40;74.93;;;9.00;99.90;;;;;;5024777;28;20215;-51
2023/03/26 09:44:24;;;;;;;763.57;111.73;;;9.00;99.90;;;;;;5050567;28;20236;-51
2023/03/26 09:47:06;;;;;;;1018.80;179.00;;;9.00;99.90;;;;;;5050850;28;20233;-51
2023/03/26 09:49:51;;;;;;;196.43;43.97;;;9.00;99.90;;;;;;5050602;28;20297;-51
2023/03/26 09:52:46;;;;;;;1276.27;185.93;;;8.90;99.90;;;;;;5050351;28;20301;-51
2023/03/26 09:55:29;;;;;;;1028.53;139.57;;;8.90;99.90;;;;;;5031981;28;20226;-51
2023/03/26 09:58:15;;;;;;;787.13;135.10;;;8.90;99.90;;;;;;5030085;28;20220;-51
2023/03/26 10:00:49;;;;;;;1999.90;321.73;;;8.80;99.90;;;;;;5028163;28;20219;-51
2023/03/26 10:03:29;;;;;;;1645.50;205.77;;;8.70;99.90;;;;;;5033805;28;20886;-50
2023/03/26 10:06:10;;;;;;;1974.47;263.07;;;8.70;99.90;;;;;;5029054;28;20222;-50
2023/03/26 10:09:04;;;;;;;253.10;42.77;;;8.60;99.90;;;;;;5028806;28;20210;-51
2023/03/26 10:11:48;;;;;;;1243.80;158.70;;;8.60;99.90;;;;;;5025626;28;20249;-51
2023/03/26 10:14:24;;;;;;;1999.90;283.00;;;8.70;99.90;;;;;;5027631;28;20281;-50
2023/03/26 10:17:04;;;;;;;1999.90;339.80;;;8.70;99.90;;;;;;5029435;28;20249;-51
2023/03/26 10:19:51;;;;;;;1999.90;326.97;;;8.60;99.90;;;;;;5029177;28;20214;-50
2023/03/26 10:22:34;;;;;;;1999.90;469.50;;;8.60;99.90;;;;;;5026632;28;20264;-51
2023/03/26 10:25:28;;;;;;;732.13;112.97;;;8.60;99.90;;;;;;5026592;28;20343;-52
2023/03/26 10:28:24;;;;;;;1999.90;293.93;;;8.60;99.90;;;;;;5029609;28;20207;-51
2023/03/26 10:31:05;;;;;;;1475.20;247.37;;;8.50;99.90;;;;;;4996651;28;20212;-51
2023/03/26 10:33:43;;;;;;;1408.03;213.37;;;8.40;99.90;;;;;;5041098;28;20244;-51
2023/03/26 10:36:28;;;;;;;362.23;88.07;;;8.50;99.90;;;;;;5029686;28;20309;-51
2023/03/26 10:39:14;;;;;;;1358.80;255.43;;;8.60;99.90;;;;;;5029530;28;20215;-51
2023/03/26 10:42:21;;;;;;;222.63;45.33;;;8.60;99.90;;;;;;5029664;28;20206;-51
2023/03/26 10:45:15;;;;;;;433.50;101.70;;;8.50;99.90;;;;;;5029378;28;20297;-51
2023/03/26 10:48:27;;;;;;;1110.53;276.03;;;8.50;99.90;;;;;;5028692;28;20206;-51
2023/03/26 10:51:16;;;;;;;393.23;78.10;;;8.60;99.90;;;;;;4987365;28;20817;-50
2023/03/26 10:53:49;;;;;;;1421.50;223.97;;;8.60;99.90;;;;;;4987243;28;20608;-51
2023/03/26 10:56:28;;;;;;;375.63;70.10;;;8.50;99.90;;;;;;5013705;28;20254;-51
2023/03/26 10:58:56;;;;;;;838.93;375.17;;;8.50;99.90;;;;;;5025276;28;20653;-50
2023/03/26 11:01:35;;;;;;;1745.27;219.30;;;8.40;99.90;;;;;;5029032;28;20296;-51
2023/03/26 11:04:18;;;;;;;1999.90;382.47;;;8.40;99.90;;;;;;5029252;28;20206;-51
2023/03/26 11:06:54;;;;;;;1999.90;298.53;;;8.30;99.90;;;;;;5032752;28;20243;-50
2023/03/26 11:09:33;;;;;;;1999.90;568.70;;;8.20;99.90;;;;;;5045380;28;20252;-51
2023/03/26 11:12:09;;;;;;;1126.40;178.57;;;8.00;99.90;;;;;;5048294;28;20219;-51
2023/03/26 11:15:06;;;;;;;316.73;68.03;;;8.00;99.90;;;;;;5034892;28;20234;-51
2023/03/26 11:17:46;;;;;;;1999.90;433.63;;;8.00;99.90;;;;;;5046572;28;20293;-51
2023/03/26 11:20:18;;;;;;;1999.90;370.67;;;8.00;99.90;;;;;;5045802;28;20216;-51
2023/03/26 11:23:00;;;;;;;1999.90;607.43;;;7.90;99.90;;;;;;5023082;28;20312;-51
2023/03/26 11:25:36;;;;;;;1594.27;315.37;;;7.80;99.90;;;;;;5047843;28;20319;-51
2023/03/26 11:28:17;;;;;;;1843.73;298.47;;;7.80;99.90;;;;;;5027485;28;20664;-51
2023/03/26 11:30:53;;;;;;;823.67;149.80;;;7.80;99.90;;;;;;5028657;28;20216;-50
2023/03/26 11:33:25;;;;;;;597.03;117.03;;;7.90;99.90;;;;;;5027743;28;20690;-51
2023/03/26 11:36:03;;;;;;;401.90;83.87;;;7.90;99.90;;;;;;5028705;28;20233;-50
2023/03/26 11:38:36;;;;;;;425.77;113.47;;;8.00;99.90;;;;;;5027858;28;20214;-51
2023/03/26 11:41:12;;;;;;;1999.90;357.67;;;8.00;99.90;;;;;;5028920;28;20213;-51
2023/03/26 11:43:41;;;;;;;438.73;99.07;;;8.00;99.90;;;;;;5028729;28;20305;-50
2023/03/26 11:46:13;;;;;;;206.73;35.40;;;8.10;99.90;;;;;;5032975;28;20234;-51
2023/03/26 11:48:46;;;;;;;82.03;18.77;;;8.20;99.90;;;;;;5029263;28;20210;-51
2023/03/26 11:51:20;;;;;;;161.17;57.57;;;8.40;99.90;;;;;;5028696;28;20202;-51
2023/03/26 11:53:48;;;;;;;776.83;125.60;;;8.50;99.90;;;;;;5022865;28;20230;-51
2023/03/26 11:56:25;;;;;;;40.27;27.77;;;8.60;99.90;;;;;;5027985;28;20248;-51
2023/03/26 11:59:00;;;;;;;120.80;50.37;;;8.70;99.90;;;;;;5027345;28;20644;-51
2023/03/26 12:01:42;;;;;;;287.03;58.27;;;8.70;99.90;;;;;;5027900;28;20209;-51
2023/03/26 12:04:14;;;;;;;750.30;90.57;;;8.70;99.90;;;;;;5025355;28;20603;-51
2023/03/26 12:06:52;;;;;;;58.47;33.13;;;8.70;99.90;;;;;;5030736;28;20318;-51
2023/03/26 12:09:20;;;;;;;102.47;42.70;;;8.80;99.90;;;;;;5028989;28;20233;-51
2023/03/26 12:11:49;;;;;;;104.47;39.40;;;8.80;99.90;;;;;;5015123;28;20227;-51
2023/03/26 12:14:22;;;;;;;94.23;64.60;;;8.70;99.90;;;;;;5028029;28;20302;-50
2023/03/26 12:17:02;;;;;;;288.03;49.87;;;8.70;99.90;;;;;;5030369;28;20265;-51
2023/03/26 12:19:38;;;;;;;444.87;81.67;;;8.70;99.90;;;;;;5031690;28;20249;-51
2023/03/26 12:22:26;;;;;;;416.87;100.63;;;8.80;99.90;;;;;;5027983;28;20217;-51
2023/03/26 12:25:03;;;;;;;485.97;145.90;;;8.80;99.90;;;;;;5031134;28;20317;-51
2023/03/26 12:27:32;;;;;;;130.10;37.53;;;8.80;99.90;;;;;;5026549;28;20652;-51
2023/03/26 12:30:11;;;;;;;394.00;92.40;;;8.90;99.90;;;;;;5027349;28;20211;-51
2023/03/26 12:32:43;;;;;;;456.33;99.53;;;8.90;99.90;;;;;;5030104;28;20683;-50
2023/03/26 12:35:17;;;;;;;100.27;18.90;;;8.80;99.90;;;;;;5029764;28;20649;-51
2023/03/26 12:37:46;;;;;;;1352.33;215.43;;;8.90;99.90;;;;;;5026562;28;20203;-50
2023/03/26 12:40:31;;;;;;;489.33;91.90;;;8.90;99.90;;;;;;5029074;28;20667;-52
2023/03/26 12:43:01;;;;;;;570.87;68.67;;;8.90;99.90;;;;;;5027390;28;20210;-51
2023/03/26 12:45:54;;;;;;;1105.37;156.13;;;9.00;99.90;;;;;;5027422;28;20231;-51
2023/03/26 12:48:42;;;;;;;358.73;64.90;;;8.90;99.90;;;;;;5026811;28;20207;-51
2023/03/26 12:51:19;;;;;;;1726.90;332.10;;;8.80;99.90;;;;;;5029990;28;20217;-51
2023/03/26 12:54:00;;;;;;;1654.53;271.17;;;8.90;99.90;;;;;;5030563;28;20238;-51
2023/03/26 12:56:35;;;;;;;218.40;53.57;;;9.10;99.90;;;;;;5027653;28;20331;-50
2023/03/26 12:59:23;;;;;;;256.87;79.13;;;9.00;99.90;;;;;;5030535;28;20214;-51
2023/03/26 13:02:01;;;;;;;696.67;131.40;;;9.00;99.90;;;;;;5030497;28;20633;-50
2023/03/26 13:04:47;;;;;;;245.50;61.93;;;9.00;99.90;;;;;;5030658;28;20202;-51
2023/03/26 13:07:53;;;;;;;566.57;96.20;;;9.00;99.90;;;;;;5028846;28;20279;-51